Time,TemperatureF,DewpointF,PressureIn,WindDirection,WindDirectionDegrees,WindSpeedMPH,WindSpeedGustMPH,Humidity,HourlyPrecipIn,Conditions,Clouds,dailyrainin,SolarRadiationWatts/m^2,SoftwareType,DateUTC
2013-11-06 00:01:00,57.2,53.7,30.03,ESE,112,2.4,2.4,88,0.00,FEW,,0.00,0.0,WeatherDisplay:10.37,2013-11-06 06:01:00,
2013-11-06 00:06:00,57.2,53.7,30.03,East,90,3.5,3.5,88,0.00,FEW,,0.00,0.0,WeatherDisplay:10.37,2013-11-06 06:06:00,
2013-11-06 00:11:00,57.2,53.7,30.00,ENE,68,2.3,2.3,88,0.00,FEW,,0.00,0.0,WeatherDisplay:10.37,2013-11-06 06:11:00,
2013-11-06 00:16:00,57.2,53.7,30.00,East,90,1.4,0.0,88,0.00,FEW,,0.00,0.0,WeatherDisplay:10.37,2013-11-06 06:16:00,
2013-11-06 00:21:00,57.0,53.5,30.00,ENE,68,2.3,2.3,88,0.00,FEW,,0.00,0.0,WeatherDisplay:10.37,2013-11-06 06:21:00,
2013-11-06 00:26:00,57.0,53.5,30.00,East,90,2.3,2.3,88,0.00,FEW,,0.00,0.0,WeatherDisplay:10.37,2013-11-06 06:26:00,
2013-11-06 00:31:00,57.0,53.5,30.00,ESE,112,3.5,3.5,88,0.00,FEW,,0.00,0.0,WeatherDisplay:10.37,2013-11-06 06:31:00,
2013-11-06 00:36:00,57.0,53.5,30.00,ENE,68,2.3,2.3,88,0.00,FEW,,0.00,0.0,WeatherDisplay:10.37,2013-11-06 06:36:00,
2013-11-06 00:41:00,57.0,53.5,30.00,East,90,2.3,2.4,88,0.00,FEW,,0.00,0.0,WeatherDisplay:10.37,2013-11-06 06:41:00,
2013-11-06 00:46:00,56.8,53.6,30.00,East,90,4.6,4.6,89,0.00,FEW,,0.00,0.0,WeatherDisplay:10.37,2013-11-06 06:46:00,
2013-11-06 00:51:00,56.8,53.6,30.00,ENE,68,3.5,3.5,89,0.00,FEW,,0.00,0.0,WeatherDisplay:10.37,2013-11-06 06:51:00,
2013-11-06 00:56:00,56.8,53.6,30.00,East,90,2.3,2.3,89,0.00,FEW,,0.00,0.0,WeatherDisplay:10.37,2013-11-06 06:56:00,
2013-11-06 01:01:00,56.7,53.5,30.00,East,90,2.3,2.4,89,0.00,CLR,FEW,0.00,0.0,WeatherDisplay:10.37,2013-11-06 07:01:00,
2013-11-06 01:06:00,56.8,53.6,30.00,SSE,158,2.6,2.6,89,0.00,CLR,FEW,0.00,0.0,WeatherDisplay:10.37,2013-11-06 07:06:00,
2013-11-06 01:12:00,56.8,53.6,30.00,ESE,112,3.6,3.6,89,0.00,CLR,FEW,0.00,0.0,WeatherDisplay:10.37,2013-11-06 07:12:00,
2013-11-06 01:17:00,56.7,53.1,30.00,ENE,68,3.5,3.5,88,0.00,CLR,FEW,0.00,0.0,WeatherDisplay:10.37,2013-11-06 07:17:00,
2013-11-06 01:22:00,56.7,53.1,30.00,ENE,68,3.5,3.5,88,0.00,CLR,FEW,0.00,0.0,WeatherDisplay:10.37,2013-11-06 07:22:00,
2013-11-06 01:27:00,56.8,53.3,29.98,ENE,68,3.5,3.5,88,0.00,CLR,FEW,0.00,0.0,WeatherDisplay:10.37,2013-11-06 07:27:00,
2013-11-06 01:32:00,56.7,53.1,29.98,East,90,3.3,3.3,88,0.00,CLR,FEW,0.00,0.0,WeatherDisplay:10.37,2013-11-06 07:32:00,
2013-11-06 01:37:00,56.7,53.1,29.98,NE,45,3.5,3.5,88,0.00,CLR,FEW,0.00,0.0,WeatherDisplay:10.37,2013-11-06 07:37:00,
2013-11-06 01:42:00,56.7,53.1,29.98,ENE,68,2.3,2.3,88,0.00,CLR,FEW,0.00,0.0,WeatherDisplay:10.37,2013-11-06 07:42:00,
2013-11-06 01:47:00,56.7,53.1,29.98,ENE,68,2.3,2.3,88,0.00,CLR,FEW,0.00,0.0,WeatherDisplay:10.37,2013-11-06 07:47:00,
2013-11-06 01:52:00,56.5,53.0,29.98,ENE,68,1.6,1.6,88,0.00,CLR,FEW,0.00,0.0,WeatherDisplay:10.37,2013-11-06 07:52:00,
2013-11-06 01:57:00,56.5,53.0,29.95,ESE,112,3.5,3.5,88,0.00,CLR,FEW,0.00,0.0,WeatherDisplay:10.37,2013-11-06 07:57:00,
2013-11-06 02:02:00,56.3,52.8,29.95,ENE,68,3.5,3.5,88,0.00,CLR,FEW,0.00,0.0,WeatherDisplay:10.37,2013-11-06 08:02:00,
2013-11-06 02:07:00,56.3,52.8,29.95,East,90,2.3,2.3,88,0.00,CLR,FEW,0.00,0.0,WeatherDisplay:10.37,2013-11-06 08:07:00,
2013-11-06 02:12:00,56.3,52.8,29.98,NW,315,1.6,1.6,88,0.00,CLR,FEW,0.00,0.0,WeatherDisplay:10.37,2013-11-06 08:12:00,
2013-11-06 02:17:00,56.3,52.8,29.98,ENE,68,2.3,2.3,88,0.00,CLR,FEW,0.00,0.0,WeatherDisplay:10.37,2013-11-06 08:17:00,
2013-11-06 02:22:00,56.1,52.6,29.98,ENE,68,2.3,2.3,88,0.00,CLR,FEW,0.00,0.0,WeatherDisplay:10.37,2013-11-06 08:22:00,
2013-11-06 02:27:00,56.1,52.6,29.95,ESE,112,2.3,0.0,88,0.00,CLR,FEW,0.00,0.0,WeatherDisplay:10.37,2013-11-06 08:27:00,
2013-11-06 02:32:00,56.1,52.6,29.95,ENE,68,1.2,0.0,88,0.00,CLR,FEW,0.00,0.0,WeatherDisplay:10.37,2013-11-06 08:32:00,
2013-11-06 02:37:00,56.1,52.6,29.95,ENE,68,2.3,2.3,88,0.00,CLR,FEW,0.00,0.0,WeatherDisplay:10.37,2013-11-06 08:37:00,
2013-11-06 02:43:00,55.9,52.4,29.98,ESE,112,2.9,2.9,88,0.00,CLR,FEW,0.00,0.0,WeatherDisplay:10.37,2013-11-06 08:43:00,
2013-11-06 02:48:00,55.9,52.7,29.98,NE,45,4.6,4.6,89,0.00,CLR,FEW,0.00,0.0,WeatherDisplay:10.37,2013-11-06 08:48:00,
2013-11-06 02:53:00,55.9,52.7,29.98,SE,135,2.3,2.3,89,0.00,CLR,FEW,0.00,0.0,WeatherDisplay:10.37,2013-11-06 08:53:00,
2013-11-06 02:58:00,55.9,52.7,29.98,ENE,68,2.3,2.3,89,0.00,CLR,FEW,0.00,0.0,WeatherDisplay:10.37,2013-11-06 08:58:00,
2013-11-06 03:03:00,55.9,52.7,29.98,ENE,68,2.3,0.0,89,0.00,FEW,,0.00,0.0,WeatherDisplay:10.37,2013-11-06 09:03:00,
2013-11-06 03:08:00,56.1,52.6,29.98,ENE,68,2.6,2.6,88,0.00,FEW,,0.00,0.0,WeatherDisplay:10.37,2013-11-06 09:08:00,
2013-11-06 03:13:00,56.1,52.6,29.95,NE,45,2.0,2.0,88,0.00,FEW,,0.00,0.0,WeatherDisplay:10.37,2013-11-06 09:13:00,
2013-11-06 03:18:00,56.1,52.6,29.95,ENE,68,4.6,4.6,88,0.00,FEW,,0.00,0.0,WeatherDisplay:10.37,2013-11-06 09:18:00,
2013-11-06 03:23:00,56.1,52.6,29.95,SSE,158,2.4,2.4,88,0.00,FEW,,0.00,0.0,WeatherDisplay:10.37,2013-11-06 09:23:00,
2013-11-06 03:28:00,55.9,52.4,29.98,East,90,2.3,2.3,88,0.00,FEW,,0.00,0.0,WeatherDisplay:10.37,2013-11-06 09:28:00,
2013-11-06 03:33:00,55.9,52.4,29.98,ESE,112,3.3,0.0,88,0.00,FEW,,0.00,0.0,WeatherDisplay:10.37,2013-11-06 09:33:00,
2013-11-06 03:38:00,55.8,52.3,29.98,East,90,2.3,2.3,88,0.00,FEW,,0.00,0.0,WeatherDisplay:10.37,2013-11-06 09:38:00,
2013-11-06 03:43:00,55.8,52.3,29.95,East,90,3.5,3.5,88,0.00,FEW,,0.00,0.0,WeatherDisplay:10.37,2013-11-06 09:43:00,
2013-11-06 03:48:00,55.6,52.1,29.95,ENE,68,1.2,1.2,88,0.00,FEW,,0.00,0.0,WeatherDisplay:10.37,2013-11-06 09:48:00,
2013-11-06 03:53:00,55.6,52.4,29.95,East,90,4.6,4.6,89,0.00,FEW,,0.00,0.0,WeatherDisplay:10.37,2013-11-06 09:53:00,
2013-11-06 03:58:00,55.6,52.1,29.98,ESE,112,3.1,3.1,88,0.00,FEW,,0.00,0.0,WeatherDisplay:10.37,2013-11-06 09:58:00,
2013-11-06 04:03:00,55.4,52.2,29.98,East,90,1.2,1.2,89,0.00,BKN,FEW,0.00,0.0,WeatherDisplay:10.37,2013-11-06 10:03:00,
2013-11-06 04:08:00,55.4,52.2,29.98,East,90,2.3,2.3,89,0.00,BKN,FEW,0.00,0.0,WeatherDisplay:10.37,2013-11-06 10:08:00,
2013-11-06 04:13:00,55.4,52.2,29.98,NE,45,2.3,2.3,89,0.00,BKN,FEW,0.00,0.0,WeatherDisplay:10.37,2013-11-06 10:13:00,
2013-11-06 04:18:00,55.2,52.0,29.98,ENE,68,1.2,0.0,89,0.00,BKN,FEW,0.00,0.0,WeatherDisplay:10.37,2013-11-06 10:18:00,
2013-11-06 04:23:00,55.0,52.2,29.98,NE,45,2.3,0.0,90,0.00,BKN,FEW,0.00,0.0,WeatherDisplay:10.37,2013-11-06 10:23:00,
2013-11-06 04:28:00,55.0,52.2,29.98,East,90,2.3,2.3,90,0.00,BKN,FEW,0.00,0.0,WeatherDisplay:10.37,2013-11-06 10:28:00,
2013-11-06 04:33:00,55.0,52.2,29.98,ENE,68,2.3,2.3,90,0.00,BKN,FEW,0.00,0.0,WeatherDisplay:10.37,2013-11-06 10:33:00,
2013-11-06 04:38:00,55.0,52.5,29.98,East,90,2.3,2.3,91,0.00,BKN,FEW,0.00,0.0,WeatherDisplay:10.37,2013-11-06 10:38:00,
2013-11-06 04:43:00,55.0,52.5,29.98,ENE,68,1.2,0.0,91,0.00,BKN,FEW,0.00,0.0,WeatherDisplay:10.37,2013-11-06 10:43:00,
2013-11-06 04:48:00,55.0,52.5,29.98,ESE,112,2.4,2.4,91,0.00,BKN,FEW,0.00,0.0,WeatherDisplay:10.37,2013-11-06 10:48:00,
2013-11-06 04:53:00,55.0,52.5,29.98,East,90,3.5,3.5,91,0.00,BKN,FEW,0.00,0.0,WeatherDisplay:10.37,2013-11-06 10:53:00,
2013-11-06 04:58:00,55.0,52.5,29.95,ENE,68,2.3,2.3,91,0.00,BKN,FEW,0.00,0.0,WeatherDisplay:10.37,2013-11-06 10:58:00,
2013-11-06 05:03:00,55.0,52.5,29.95,ESE,112,4.6,4.6,91,0.00,CLR,FEW,0.00,0.0,WeatherDisplay:10.37,2013-11-06 11:03:00,
2013-11-06 05:08:00,54.9,52.3,29.95,ENE,68,3.5,3.5,91,0.00,CLR,FEW,0.00,0.0,WeatherDisplay:10.37,2013-11-06 11:08:00,
2013-11-06 05:13:00,54.9,52.6,29.98,East,90,3.5,3.5,92,0.00,CLR,FEW,0.00,0.0,WeatherDisplay:10.37,2013-11-06 11:13:00,
2013-11-06 05:18:00,54.9,52.3,29.98,ESE,112,3.6,3.6,91,0.00,CLR,FEW,0.00,0.0,WeatherDisplay:10.37,2013-11-06 11:18:00,
2013-11-06 05:23:00,54.9,52.6,29.98,East,90,3.5,3.5,92,0.00,CLR,FEW,0.00,0.0,WeatherDisplay:10.37,2013-11-06 11:23:00,
2013-11-06 05:28:00,54.7,52.4,29.98,ENE,68,2.3,2.3,92,0.00,CLR,FEW,0.00,0.0,WeatherDisplay:10.37,2013-11-06 11:28:00,
2013-11-06 05:33:00,54.7,52.4,29.98,East,90,3.6,3.6,92,0.00,CLR,FEW,0.00,0.0,WeatherDisplay:10.37,2013-11-06 11:33:00,
2013-11-06 05:44:00,54.7,52.4,29.98,East,90,2.4,2.4,92,0.00,CLR,FEW,0.00,0.0,WeatherDisplay:10.37,2013-11-06 11:44:00,
2013-11-06 05:49:00,54.9,52.6,29.98,ENE,68,2.3,2.3,92,0.00,CLR,FEW,0.00,0.0,WeatherDisplay:10.37,2013-11-06 11:49:00,
2013-11-06 05:54:00,54.9,52.6,29.98,ESE,112,2.3,2.3,92,0.00,CLR,FEW,0.00,0.0,WeatherDisplay:10.37,2013-11-06 11:54:00,
2013-11-06 05:59:00,55.0,52.8,29.98,ENE,68,4.6,4.6,92,0.00,CLR,FEW,0.00,0.0,WeatherDisplay:10.37,2013-11-06 11:59:00,
2013-11-06 06:04:00,55.0,52.8,29.98,NE,45,1.2,1.4,92,0.00,CLR,FEW,0.00,0.0,WeatherDisplay:10.37,2013-11-06 12:04:00,
2013-11-06 06:09:00,55.0,52.8,29.98,ENE,68,2.3,2.3,92,0.00,CLR,FEW,0.00,0.0,WeatherDisplay:10.37,2013-11-06 12:09:00,
2013-11-06 06:14:00,55.0,52.8,29.98,East,90,2.3,2.3,92,0.00,CLR,FEW,0.00,0.0,WeatherDisplay:10.37,2013-11-06 12:14:00,
2013-11-06 06:19:00,55.0,52.8,29.98,ESE,112,2.3,2.3,92,0.00,CLR,FEW,0.00,0.0,WeatherDisplay:10.37,2013-11-06 12:19:00,
2013-11-06 06:24:00,55.0,53.1,29.98,ESE,112,2.3,2.3,93,0.00,CLR,FEW,0.00,0.0,WeatherDisplay:10.37,2013-11-06 12:24:00,
2013-11-06 06:29:00,55.2,52.9,29.98,NE,45,3.8,0.0,92,0.00,CLR,FEW,0.00,0.0,WeatherDisplay:10.37,2013-11-06 12:29:00,
2013-11-06 06:34:00,55.4,53.1,29.98,ENE,68,3.5,3.5,92,0.00,CLR,FEW,0.00,0.0,WeatherDisplay:10.37,2013-11-06 12:34:00,
2013-11-06 06:39:00,55.6,53.3,29.98,East,90,4.6,4.6,92,0.00,CLR,FEW,0.00,0.0,WeatherDisplay:10.37,2013-11-06 12:39:00,
2013-11-06 06:44:00,56.3,54.0,29.98,East,90,2.3,2.3,92,0.00,CLR,FEW,0.00,0.0,WeatherDisplay:10.37,2013-11-06 12:44:00,
2013-11-06 06:49:00,57.0,54.4,29.98,ENE,68,3.5,0.0,91,0.00,CLR,FEW,0.00,0.0,WeatherDisplay:10.37,2013-11-06 12:49:00,
2013-11-06 06:54:00,57.9,55.3,29.98,East,90,2.6,2.6,91,0.00,CLR,FEW,0.00,0.0,WeatherDisplay:10.37,2013-11-06 12:54:00,
2013-11-06 06:59:00,58.8,55.6,29.98,ESE,112,3.5,3.5,89,0.00,CLR,FEW,0.00,0.0,WeatherDisplay:10.37,2013-11-06 12:59:00,
2013-11-06 07:04:00,59.7,55.8,29.98,ENE,68,2.3,2.3,87,0.00,CLR,FEW,0.00,0.0,WeatherDisplay:10.37,2013-11-06 13:04:00,
2013-11-06 07:09:00,60.4,56.6,29.98,ESE,112,3.5,3.5,87,0.00,CLR,FEW,0.00,0.0,WeatherDisplay:10.37,2013-11-06 13:09:00,
2013-11-06 07:14:00,61.2,56.0,29.98,SE,135,3.5,3.5,83,0.00,CLR,FEW,0.00,0.0,WeatherDisplay:10.37,2013-11-06 13:14:00,
2013-11-06 07:19:00,61.9,56.3,29.98,NE,45,2.4,2.4,82,0.00,CLR,FEW,0.00,0.0,WeatherDisplay:10.37,2013-11-06 13:19:00,
2013-11-06 07:24:00,62.1,56.5,29.98,East,90,2.3,2.3,82,0.00,CLR,FEW,0.00,0.0,WeatherDisplay:10.37,2013-11-06 13:24:00,
2013-11-06 07:29:00,60.8,55.3,30.00,East,90,2.3,2.3,82,0.00,CLR,FEW,0.00,0.0,WeatherDisplay:10.37,2013-11-06 13:29:00,
2013-11-06 07:34:00,60.3,55.1,30.00,East,90,4.6,4.6,83,0.00,CLR,FEW,0.00,0.0,WeatherDisplay:10.37,2013-11-06 13:34:00,
2013-11-06 07:39:00,60.4,55.6,30.00,SSE,158,2.9,2.9,84,0.00,CLR,FEW,0.00,0.0,WeatherDisplay:10.37,2013-11-06 13:39:00,
2013-11-06 07:44:00,60.4,55.9,30.00,SE,135,2.3,2.3,85,0.00,CLR,FEW,0.00,0.0,WeatherDisplay:10.37,2013-11-06 13:44:00,
2013-11-06 07:49:00,60.4,56.2,30.00,ESE,112,2.3,2.3,86,0.00,CLR,FEW,0.00,0.0,WeatherDisplay:10.37,2013-11-06 13:49:00,
2013-11-06 07:54:00,61.0,56.8,30.00,ENE,68,2.3,2.3,86,0.00,CLR,FEW,0.00,0.0,WeatherDisplay:10.37,2013-11-06 13:54:00,
2013-11-06 07:59:00,62.1,57.8,29.98,East,90,2.3,3.3,86,0.00,CLR,FEW,0.00,0.0,WeatherDisplay:10.37,2013-11-06 13:59:00,
2013-11-06 08:04:00,63.7,59.1,29.98,SSE,158,3.8,3.8,85,0.00,BKN,FEW,0.00,0.0,WeatherDisplay:10.37,2013-11-06 14:04:00,
2013-11-06 08:09:00,66.0,60.7,29.98,ESE,112,4.6,4.6,83,0.00,BKN,FEW,0.00,0.0,WeatherDisplay:10.37,2013-11-06 14:09:00,
2013-11-06 08:14:00,66.6,60.5,30.00,ENE,68,5.8,5.8,81,0.00,BKN,FEW,0.00,0.0,WeatherDisplay:10.37,2013-11-06 14:14:00,
2013-11-06 08:19:00,65.8,59.8,30.00,SSE,158,5.6,5.6,81,0.00,BKN,FEW,0.00,0.0,WeatherDisplay:10.37,2013-11-06 14:19:00,
2013-11-06 08:24:00,65.7,60.0,30.00,ESE,112,5.8,5.8,82,0.00,BKN,FEW,0.00,0.0,WeatherDisplay:10.37,2013-11-06 14:24:00,
2013-11-06 08:29:00,65.7,60.4,30.00,ESE,112,5.8,5.8,83,0.00,BKN,FEW,0.00,0.0,WeatherDisplay:10.37,2013-11-06 14:29:00,
2013-11-06 08:34:00,67.6,61.9,30.00,SSE,158,5.8,5.8,82,0.00,BKN,FEW,0.00,0.0,WeatherDisplay:10.37,2013-11-06 14:34:00,
2013-11-06 08:39:00,69.3,62.8,30.00,SE,135,5.8,5.8,80,0.00,BKN,FEW,0.00,0.0,WeatherDisplay:10.37,2013-11-06 14:39:00,
2013-11-06 08:44:00,70.0,62.8,30.00,ESE,112,3.6,3.6,78,0.00,BKN,FEW,0.00,0.0,WeatherDisplay:10.37,2013-11-06 14:44:00,
2013-11-06 08:49:00,70.5,63.0,30.00,ENE,68,5.8,5.8,77,0.00,BKN,FEW,0.00,0.0,WeatherDisplay:10.37,2013-11-06 14:49:00,
2013-11-06 08:54:00,71.6,63.6,30.00,SSE,158,5.6,5.6,76,0.00,BKN,FEW,0.00,0.0,WeatherDisplay:10.37,2013-11-06 14:54:00,
2013-11-06 08:59:00,72.1,63.4,30.00,East,90,4.9,4.9,74,0.00,BKN,FEW,0.00,0.0,WeatherDisplay:10.37,2013-11-06 14:59:00,
2013-11-06 09:04:00,71.6,63.3,30.00,East,90,4.7,4.7,75,0.00,SCT,FEW,0.00,0.0,WeatherDisplay:10.37,2013-11-06 15:04:00,
2013-11-06 09:09:00,70.7,63.1,30.00,South,180,8.1,8.1,77,0.00,SCT,FEW,0.00,0.0,WeatherDisplay:10.37,2013-11-06 15:09:00,
2013-11-06 09:14:00,71.8,64.5,30.00,ESE,112,7.4,7.4,78,0.00,SCT,FEW,0.00,0.0,WeatherDisplay:10.37,2013-11-06 15:14:00,
2013-11-06 09:21:00,72.7,65.1,30.00,SSE,158,4.0,4.0,77,0.00,SCT,FEW,0.00,0.0,WeatherDisplay:10.37,2013-11-06 15:21:00,
2013-11-06 09:26:00,73.2,65.2,30.00,SE,135,5.8,5.8,76,0.00,SCT,FEW,0.00,0.0,WeatherDisplay:10.37,2013-11-06 15:26:00,
2013-11-06 09:31:00,73.6,65.9,30.00,SSE,158,4.6,4.6,77,0.00,SCT,FEW,0.00,0.0,WeatherDisplay:10.37,2013-11-06 15:31:00,
2013-11-06 09:36:00,73.9,65.9,30.00,SSW,202,5.8,5.8,76,0.00,SCT,FEW,0.00,0.0,WeatherDisplay:10.37,2013-11-06 15:36:00,
2013-11-06 09:41:00,73.6,65.9,30.00,SSE,158,8.1,8.1,77,0.00,SCT,FEW,0.00,0.0,WeatherDisplay:10.37,2013-11-06 15:41:00,
2013-11-06 09:46:00,73.8,66.1,30.00,East,90,8.1,8.1,77,0.00,SCT,FEW,0.00,0.0,WeatherDisplay:10.37,2013-11-06 15:46:00,
2013-11-06 09:51:00,74.5,66.8,30.00,SSE,158,5.9,5.9,77,0.00,SCT,FEW,0.00,0.0,WeatherDisplay:10.37,2013-11-06 15:51:00,
2013-11-06 09:56:00,74.7,66.6,30.00,East,90,5.8,5.8,76,0.00,SCT,FEW,0.00,0.0,WeatherDisplay:10.37,2013-11-06 15:56:00,
2013-11-06 10:01:00,75.0,66.2,30.00,SE,135,8.1,8.1,74,0.00,SCT,FEW,0.00,0.0,WeatherDisplay:10.37,2013-11-06 16:01:00,
2013-11-06 10:06:00,75.2,66.3,30.00,SE,135,6.9,6.9,74,0.00,SCT,FEW,0.00,0.0,WeatherDisplay:10.37,2013-11-06 16:06:00,
2013-11-06 10:11:00,75.2,66.3,30.00,South,180,6.9,6.9,74,0.00,SCT,FEW,0.00,0.0,WeatherDisplay:10.37,2013-11-06 16:11:00,
2013-11-06 10:16:00,75.4,66.5,30.00,SE,135,5.8,5.8,74,0.00,SCT,FEW,0.00,0.0,WeatherDisplay:10.37,2013-11-06 16:16:00,
2013-11-06 10:21:00,76.3,67.4,30.00,SSE,158,4.9,4.9,74,0.00,SCT,FEW,0.00,0.0,WeatherDisplay:10.37,2013-11-06 16:21:00,
2013-11-06 10:26:00,76.5,66.8,30.00,SE,135,6.9,6.9,72,0.00,SCT,FEW,0.00,0.0,WeatherDisplay:10.37,2013-11-06 16:26:00,
2013-11-06 10:31:00,75.4,66.1,30.00,SSE,158,5.8,5.9,73,0.00,SCT,FEW,0.00,0.0,WeatherDisplay:10.37,2013-11-06 16:31:00,
2013-11-06 10:36:00,75.0,66.6,30.00,SE,135,7.6,7.6,75,0.00,SCT,FEW,0.00,0.0,WeatherDisplay:10.37,2013-11-06 16:36:00,
2013-11-06 10:41:00,75.0,66.6,30.00,East,90,5.8,5.8,75,0.00,SCT,FEW,0.00,0.0,WeatherDisplay:10.37,2013-11-06 16:41:00,
2013-11-06 10:46:00,77.4,68.8,30.00,East,90,4.6,4.6,75,0.00,SCT,FEW,0.00,0.0,WeatherDisplay:10.37,2013-11-06 16:46:00,
2013-11-06 10:51:00,77.4,67.6,30.00,SE,135,6.9,6.9,72,0.00,SCT,FEW,0.00,0.0,WeatherDisplay:10.37,2013-11-06 16:51:00,
2013-11-06 10:56:00,77.7,68.0,30.00,East,90,5.8,5.8,72,0.00,SCT,FEW,0.00,0.0,WeatherDisplay:10.37,2013-11-06 16:56:00,
2013-11-06 11:02:00,79.0,68.4,30.00,SSE,158,5.8,5.8,70,0.00,SCT,FEW,0.00,0.0,WeatherDisplay:10.37,2013-11-06 17:02:00,
2013-11-06 11:07:00,77.7,67.2,30.00,SSE,158,5.8,5.8,70,0.00,SCT,FEW,0.00,0.0,WeatherDisplay:10.37,2013-11-06 17:07:00,
2013-11-06 11:12:00,77.5,67.4,30.00,SSE,158,5.8,5.8,71,0.00,SCT,FEW,0.00,0.0,WeatherDisplay:10.37,2013-11-06 17:12:00,
2013-11-06 11:17:00,78.3,67.7,30.00,SE,135,5.6,5.6,70,0.00,SCT,FEW,0.00,0.0,WeatherDisplay:10.37,2013-11-06 17:17:00,
2013-11-06 11:22:00,76.8,67.1,30.00,ESE,112,7.4,7.4,72,0.00,SCT,FEW,0.00,0.0,WeatherDisplay:10.37,2013-11-06 17:22:00,
2013-11-06 11:27:00,75.9,66.6,29.98,SSE,158,7.8,7.8,73,0.00,SCT,FEW,0.00,0.0,WeatherDisplay:10.37,2013-11-06 17:27:00,
2013-11-06 11:32:00,75.0,66.6,29.98,SSE,158,5.8,5.8,75,0.00,SCT,FEW,0.00,0.0,WeatherDisplay:10.37,2013-11-06 17:32:00,
2013-11-06 11:37:00,74.8,66.8,29.98,East,90,6.9,6.9,76,0.00,SCT,FEW,0.00,0.0,WeatherDisplay:10.37,2013-11-06 17:37:00,
2013-11-06 11:42:00,74.5,66.8,29.98,ESE,112,8.1,8.1,77,0.00,SCT,FEW,0.00,0.0,WeatherDisplay:10.37,2013-11-06 17:42:00,
2013-11-06 11:47:00,74.1,66.8,29.98,East,90,5.8,5.8,78,0.00,SCT,FEW,0.00,0.0,WeatherDisplay:10.37,2013-11-06 17:47:00,
2013-11-06 11:52:00,74.1,67.2,29.98,SSE,158,5.8,5.8,79,0.00,SCT,FEW,0.00,0.0,WeatherDisplay:10.37,2013-11-06 17:52:00,
2013-11-06 11:57:00,75.2,67.9,29.98,ESE,112,5.9,5.9,78,0.00,SCT,FEW,0.00,0.0,WeatherDisplay:10.37,2013-11-06 17:57:00,
2013-11-06 12:02:00,74.1,66.8,29.98,SE,135,6.2,6.2,78,0.00,BKN,FEW,0.00,0.0,WeatherDisplay:10.37,2013-11-06 18:02:00,
2013-11-06 12:07:00,73.9,67.0,29.98,SE,135,9.2,9.2,79,0.00,BKN,FEW,0.00,0.0,WeatherDisplay:10.37,2013-11-06 18:07:00,
2013-11-06 12:12:00,75.0,67.7,29.95,East,90,6.9,6.9,78,0.00,BKN,FEW,0.00,0.0,WeatherDisplay:10.37,2013-11-06 18:12:00,
2013-11-06 12:17:00,75.2,67.5,29.95,SSE,158,6.9,6.9,77,0.00,BKN,FEW,0.00,0.0,WeatherDisplay:10.37,2013-11-06 18:17:00,
2013-11-06 12:22:00,74.7,67.3,29.95,SSE,158,3.5,3.5,78,0.00,BKN,FEW,0.00,0.0,WeatherDisplay:10.37,2013-11-06 18:22:00,
2013-11-06 12:27:00,75.4,68.0,29.98,SE,135,5.8,5.8,78,0.00,BKN,FEW,0.00,0.0,WeatherDisplay:10.37,2013-11-06 18:27:00,
2013-11-06 12:32:00,75.6,67.8,29.98,SE,135,3.8,3.8,77,0.00,BKN,FEW,0.00,0.0,WeatherDisplay:10.37,2013-11-06 18:32:00,
2013-11-06 12:37:00,75.2,67.5,29.98,SSE,158,8.1,8.1,77,0.00,BKN,FEW,0.00,0.0,WeatherDisplay:10.37,2013-11-06 18:37:00,
2013-11-06 12:42:00,74.3,67.0,29.98,NE,45,6.9,6.9,78,0.00,BKN,FEW,0.00,0.0,WeatherDisplay:10.37,2013-11-06 18:42:00,
2013-11-06 12:47:00,74.7,67.7,29.98,ESE,112,4.6,4.6,79,0.00,BKN,FEW,0.00,0.0,WeatherDisplay:10.37,2013-11-06 18:47:00,
2013-11-06 12:52:00,75.2,67.9,29.98,SSE,158,4.7,4.7,78,0.00,BKN,FEW,0.00,0.0,WeatherDisplay:10.37,2013-11-06 18:52:00,
2013-11-06 12:57:00,75.2,67.9,29.98,SE,135,8.1,8.1,78,0.00,BKN,FEW,0.00,0.0,WeatherDisplay:10.37,2013-11-06 18:57:00,
2013-11-06 13:02:00,75.4,68.0,29.98,ESE,112,3.5,3.5,78,0.00,BKN,FEW,0.00,0.0,WeatherDisplay:10.37,2013-11-06 19:02:00,
2013-11-06 13:07:00,74.8,67.5,29.98,East,90,4.6,4.6,78,0.00,BKN,FEW,0.00,0.0,WeatherDisplay:10.37,2013-11-06 19:07:00,
2013-11-06 13:12:00,74.3,67.4,29.98,East,90,6.9,6.9,79,0.00,BKN,FEW,0.00,0.0,WeatherDisplay:10.37,2013-11-06 19:12:00,
2013-11-06 13:17:00,73.8,66.8,29.98,SSE,158,4.6,4.6,79,0.00,BKN,FEW,0.00,0.0,WeatherDisplay:10.37,2013-11-06 19:17:00,
2013-11-06 13:22:00,74.3,67.7,29.98,East,90,2.4,2.4,80,0.00,BKN,FEW,0.00,0.0,WeatherDisplay:10.37,2013-11-06 19:22:00,
2013-11-06 13:27:00,74.7,67.7,29.98,SE,135,3.8,3.8,79,0.00,BKN,FEW,0.00,0.0,WeatherDisplay:10.37,2013-11-06 19:27:00,
2013-11-06 13:32:00,74.8,67.9,29.98,SSE,158,4.6,4.6,79,0.00,BKN,FEW,0.00,0.0,WeatherDisplay:10.37,2013-11-06 19:32:00,
2013-11-06 13:37:00,75.0,67.7,29.98,East,90,6.9,6.9,78,0.00,BKN,FEW,0.00,0.0,WeatherDisplay:10.37,2013-11-06 19:37:00,
2013-11-06 13:42:00,74.8,67.5,29.95,South,180,6.9,6.9,78,0.00,BKN,FEW,0.00,0.0,WeatherDisplay:10.37,2013-11-06 19:42:00,
2013-11-06 13:47:00,73.9,66.6,29.95,East,90,9.2,9.2,78,0.00,BKN,FEW,0.00,0.0,WeatherDisplay:10.37,2013-11-06 19:47:00,
2013-11-06 13:52:00,73.8,66.8,29.95,SE,135,5.8,5.8,79,0.00,BKN,FEW,0.00,0.0,WeatherDisplay:10.37,2013-11-06 19:52:00,
2013-11-06 13:57:00,73.4,66.9,29.95,ESE,112,6.9,6.9,80,0.00,BKN,FEW,0.00,0.0,WeatherDisplay:10.37,2013-11-06 19:57:00,
2013-11-06 14:02:00,73.0,66.9,29.95,ESE,112,6.2,6.2,81,0.00,BKN,FEW,0.00,0.0,WeatherDisplay:10.37,2013-11-06 20:02:00,
2013-11-06 14:07:00,72.9,67.0,29.95,East,90,3.5,3.5,82,0.00,BKN,FEW,0.00,0.0,WeatherDisplay:10.37,2013-11-06 20:07:00,
2013-11-06 14:12:00,72.9,67.0,29.95,East,90,5.8,5.8,82,0.00,BKN,FEW,0.00,0.0,WeatherDisplay:10.37,2013-11-06 20:12:00,
2013-11-06 14:17:00,72.9,67.4,29.95,ESE,112,6.9,6.9,83,0.00,BKN,FEW,0.00,0.0,WeatherDisplay:10.37,2013-11-06 20:17:00,
2013-11-06 14:22:00,73.0,67.6,29.95,SE,135,6.7,6.7,83,0.00,BKN,FEW,0.00,0.0,WeatherDisplay:10.37,2013-11-06 20:22:00,
2013-11-06 14:27:00,73.0,67.6,29.92,East,90,6.2,6.2,83,0.00,BKN,FEW,0.00,0.0,WeatherDisplay:10.37,2013-11-06 20:27:00,
2013-11-06 14:32:00,73.0,67.6,29.92,SE,135,6.9,6.9,83,0.00,OVC,FEW,0.00,0.0,WeatherDisplay:10.37,2013-11-06 20:32:00,
2013-11-06 14:37:00,73.2,67.4,29.92,ESE,112,5.8,5.8,82,0.00,OVC,FEW,0.00,0.0,WeatherDisplay:10.37,2013-11-06 20:37:00,
2013-11-06 14:42:00,73.4,67.6,29.92,SSE,158,4.6,4.6,82,0.00,OVC,FEW,0.00,0.0,WeatherDisplay:10.37,2013-11-06 20:42:00,
2013-11-06 14:47:00,73.0,67.2,29.92,East,90,8.1,8.1,82,0.00,OVC,FEW,0.00,0.0,WeatherDisplay:10.37,2013-11-06 20:47:00,
2013-11-06 14:52:00,72.9,67.4,29.92,SSE,158,5.8,5.8,83,0.00,OVC,FEW,0.00,0.0,WeatherDisplay:10.37,2013-11-06 20:52:00,
2013-11-06 14:57:00,73.2,67.4,29.92,South,180,4.6,4.6,82,0.00,OVC,FEW,0.00,0.0,WeatherDisplay:10.37,2013-11-06 20:57:00,
2013-11-06 15:02:00,73.0,67.2,29.92,ESE,112,5.8,5.8,82,0.00,OVC,FEW,0.00,0.0,WeatherDisplay:10.37,2013-11-06 21:02:00,
2013-11-06 15:07:00,72.3,67.2,29.92,ESE,112,4.6,4.6,84,0.00,OVC,FEW,0.00,0.0,WeatherDisplay:10.37,2013-11-06 21:07:00,
2013-11-06 15:12:00,72.0,66.9,29.92,SSE,158,4.6,4.6,84,0.00,OVC,FEW,0.00,0.0,WeatherDisplay:10.37,2013-11-06 21:12:00,
2013-11-06 15:17:00,72.1,67.4,29.92,South,180,4.6,4.6,85,0.00,OVC,FEW,0.00,0.0,WeatherDisplay:10.37,2013-11-06 21:17:00,
2013-11-06 15:22:00,72.5,67.7,29.92,SE,135,5.4,5.4,85,0.00,OVC,FEW,0.00,0.0,WeatherDisplay:10.37,2013-11-06 21:22:00,
2013-11-06 15:27:00,72.5,67.4,29.89,SE,135,6.9,6.9,84,0.00,OVC,FEW,0.00,0.0,WeatherDisplay:10.37,2013-11-06 21:27:00,
2013-11-06 15:32:00,72.5,67.4,29.89,SSE,158,4.6,4.6,84,0.00,OVC,FEW,0.00,0.0,WeatherDisplay:10.37,2013-11-06 21:32:00,
2013-11-06 15:37:00,72.1,67.4,29.89,ESE,112,5.9,5.9,85,0.00,OVC,FEW,0.00,0.0,WeatherDisplay:10.37,2013-11-06 21:37:00,
2013-11-06 15:42:00,72.0,67.2,29.92,ESE,112,4.6,4.6,85,0.00,OVC,FEW,0.00,0.0,WeatherDisplay:10.37,2013-11-06 21:42:00,
2013-11-06 15:47:00,72.0,67.5,29.92,South,180,4.6,4.6,86,0.00,OVC,FEW,0.00,0.0,WeatherDisplay:10.37,2013-11-06 21:47:00,
2013-11-06 15:52:00,71.6,67.2,29.92,East,90,3.6,3.6,86,0.00,OVC,FEW,0.00,0.0,WeatherDisplay:10.37,2013-11-06 21:52:00,
2013-11-06 15:57:00,71.2,66.8,29.92,SE,135,1.4,1.4,86,0.00,OVC,FEW,0.00,0.0,WeatherDisplay:10.37,2013-11-06 21:57:00,
2013-11-06 16:02:00,71.1,67.0,29.92,ESE,112,6.0,6.0,87,0.00,OVC,FEW,0.00,0.0,WeatherDisplay:10.37,2013-11-06 22:02:00,
2013-11-06 16:07:00,70.9,67.1,29.92,SSE,158,3.5,3.5,88,0.00,OVC,FEW,0.00,0.0,WeatherDisplay:10.37,2013-11-06 22:07:00,
2013-11-06 16:12:00,70.5,66.8,29.92,ESE,112,5.9,5.9,88,0.00,OVC,FEW,0.00,0.0,WeatherDisplay:10.37,2013-11-06 22:12:00,
2013-11-06 16:17:00,70.3,66.6,29.92,SE,135,2.3,2.3,88,0.00,OVC,FEW,0.00,0.0,WeatherDisplay:10.37,2013-11-06 22:17:00,
2013-11-06 16:22:00,70.2,66.8,29.92,ENE,68,4.6,4.6,89,0.00,OVC,FEW,0.00,0.0,WeatherDisplay:10.37,2013-11-06 22:22:00,
2013-11-06 16:27:00,69.8,66.4,29.92,SE,135,4.9,4.9,89,0.00,OVC,FEW,0.00,0.0,WeatherDisplay:10.37,2013-11-06 22:27:00,
2013-11-06 16:32:00,69.6,66.2,29.92,ESE,112,3.5,3.5,89,0.00,OVC,FEW,0.00,0.0,WeatherDisplay:10.37,2013-11-06 22:32:00,
2013-11-06 16:37:00,69.3,66.2,29.92,SSE,158,4.3,4.3,90,0.00,OVC,FEW,0.00,0.0,WeatherDisplay:10.37,2013-11-06 22:37:00,
2013-11-06 16:42:00,69.1,66.3,29.92,SE,135,3.5,3.5,91,0.00,OVC,FEW,0.00,0.0,WeatherDisplay:10.37,2013-11-06 22:42:00,
2013-11-06 16:47:00,68.9,66.2,29.92,ESE,112,3.5,3.5,91,0.00,OVC,FEW,0.00,0.0,WeatherDisplay:10.37,2013-11-06 22:47:00,
2013-11-06 16:52:00,68.7,66.0,29.92,SE,135,5.8,5.8,91,0.00,OVC,FEW,0.00,0.0,WeatherDisplay:10.37,2013-11-06 22:52:00,
2013-11-06 16:57:00,68.7,66.0,29.92,SSW,202,2.9,2.9,91,0.00,OVC,FEW,0.00,0.0,WeatherDisplay:10.37,2013-11-06 22:57:00,
2013-11-06 17:02:00,68.5,66.1,29.92,ESE,112,2.3,2.3,92,0.00,OVC,FEW,0.00,0.0,WeatherDisplay:10.37,2013-11-06 23:02:00,
2013-11-06 17:07:00,68.5,66.1,29.92,SSE,158,2.3,2.4,92,0.00,OVC,FEW,0.00,0.0,WeatherDisplay:10.37,2013-11-06 23:07:00,
2013-11-06 17:12:00,68.4,65.9,29.92,SSE,158,3.5,3.5,92,0.00,OVC,FEW,0.00,0.0,WeatherDisplay:10.37,2013-11-06 23:12:00,
2013-11-06 17:17:00,68.4,65.9,29.92,SSE,158,3.5,3.5,92,0.00,OVC,FEW,0.00,0.0,WeatherDisplay:10.37,2013-11-06 23:17:00,
2013-11-06 17:22:00,68.2,65.8,29.92,East,90,2.4,2.4,92,0.00,OVC,FEW,0.00,0.0,WeatherDisplay:10.37,2013-11-06 23:22:00,
2013-11-06 17:27:00,68.2,65.8,29.95,SE,135,3.5,3.5,92,0.00,OVC,FEW,0.00,0.0,WeatherDisplay:10.37,2013-11-06 23:27:00,
2013-11-06 17:32:00,68.2,65.8,29.95,East,90,2.3,2.3,92,0.00,OVC,FEW,0.00,0.0,WeatherDisplay:10.37,2013-11-06 23:32:00,
2013-11-06 17:37:00,68.0,65.9,29.95,SSE,158,3.5,3.5,93,0.00,OVC,FEW,0.00,0.0,WeatherDisplay:10.37,2013-11-06 23:37:00,
2013-11-06 17:42:00,67.8,65.7,29.95,SSE,158,3.5,3.5,93,0.00,OVC,FEW,0.00,0.0,WeatherDisplay:10.37,2013-11-06 23:42:00,
2013-11-06 17:47:00,67.8,65.7,29.95,SSE,158,3.5,3.5,93,0.00,OVC,FEW,0.00,0.0,WeatherDisplay:10.37,2013-11-06 23:47:00,
2013-11-06 17:52:00,67.6,65.5,29.95,SE,135,2.9,2.9,93,0.00,OVC,FEW,0.00,0.0,WeatherDisplay:10.37,2013-11-06 23:52:00,
2013-11-06 17:57:00,67.6,65.9,29.95,NE,45,3.3,3.3,94,0.00,OVC,FEW,0.00,0.0,WeatherDisplay:10.37,2013-11-06 23:57:00,
2013-11-06 18:02:00,67.5,65.7,29.95,ENE,68,2.3,2.3,94,0.00,OVC,FEW,0.00,0.0,WeatherDisplay:10.37,2013-11-07 00:02:00,
2013-11-06 18:07:00,67.5,65.7,29.95,ESE,112,2.6,2.6,94,0.00,OVC,FEW,0.00,0.0,WeatherDisplay:10.37,2013-11-07 00:07:00,
2013-11-06 18:12:00,67.5,65.7,29.92,SSE,158,3.5,3.5,94,0.00,OVC,FEW,0.00,0.0,WeatherDisplay:10.37,2013-11-07 00:12:00,
2013-11-06 18:17:00,67.3,65.5,29.92,SE,135,2.4,2.4,94,0.00,OVC,FEW,0.00,0.0,WeatherDisplay:10.37,2013-11-07 00:17:00,
2013-11-06 18:22:00,67.3,65.5,29.92,ENE,68,3.5,3.5,94,0.00,OVC,FEW,0.00,0.0,WeatherDisplay:10.37,2013-11-07 00:22:00,
2013-11-06 18:27:00,67.3,65.5,29.92,SE,135,2.3,2.3,94,0.00,OVC,FEW,0.00,0.0,WeatherDisplay:10.37,2013-11-07 00:27:00,
2013-11-06 18:32:00,67.1,65.3,29.92,ESE,112,4.0,4.0,94,0.00,OVC,FEW,0.00,0.0,WeatherDisplay:10.37,2013-11-07 00:32:00,
2013-11-06 18:37:00,67.1,65.3,29.92,SSE,158,3.8,0.0,94,0.00,OVC,FEW,0.00,0.0,WeatherDisplay:10.37,2013-11-07 00:37:00,
2013-11-06 18:40:00,62.4,61.6,29.92,North,0,3.0,3.0,97,0.00,CLR,FEW,0.00,0.0,WeatherDisplay:10.37,2013-11-07 00:40:00,
2013-11-06 18:42:00,66.9,65.1,29.95,East,90,2.3,2.3,94,0.00,OVC,FEW,0.00,0.0,WeatherDisplay:10.37,2013-11-07 00:42:00,
2013-11-06 18:47:00,66.9,65.1,29.95,ESE,112,3.5,3.5,94,0.00,OVC,FEW,0.00,0.0,WeatherDisplay:10.37,2013-11-07 00:47:00,
2013-11-06 18:52:00,66.7,65.0,29.95,NE,45,0.9,0.0,94,0.00,OVC,FEW,0.00,0.0,WeatherDisplay:10.37,2013-11-07 00:52:00,
2013-11-06 18:57:00,66.7,65.3,29.92,SSE,158,4.6,4.6,95,0.00,OVC,FEW,0.00,0.0,WeatherDisplay:10.37,2013-11-07 00:57:00,
2013-11-06 19:02:00,66.7,65.3,29.92,South,180,2.3,2.3,95,0.00,OVC,FEW,0.00,0.0,WeatherDisplay:10.37,2013-11-07 01:02:00,
2013-11-06 19:07:00,66.7,65.3,29.92,ESE,112,3.5,3.5,95,0.00,OVC,FEW,0.00,0.0,WeatherDisplay:10.37,2013-11-07 01:07:00,
2013-11-06 19:12:00,66.7,65.3,29.92,ESE,112,2.3,2.3,95,0.00,OVC,FEW,0.00,0.0,WeatherDisplay:10.37,2013-11-07 01:12:00,
2013-11-06 19:17:00,66.7,65.3,29.92,SE,135,2.4,2.4,95,0.00,OVC,FEW,0.00,0.0,WeatherDisplay:10.37,2013-11-07 01:17:00,
2013-11-06 19:22:00,66.7,65.3,29.92,East,90,2.6,2.6,95,0.00,OVC,FEW,0.00,0.0,WeatherDisplay:10.37,2013-11-07 01:22:00,
2013-11-06 19:27:00,66.7,65.3,29.92,SSE,158,2.4,2.4,95,0.00,OVC,FEW,0.00,0.0,WeatherDisplay:10.37,2013-11-07 01:27:00,
2013-11-06 19:32:00,66.7,65.3,29.92,ESE,112,2.3,2.3,95,0.00,OVC,FEW,0.00,0.0,WeatherDisplay:10.37,2013-11-07 01:32:00,
2013-11-06 19:37:00,66.6,65.1,29.92,ESE,112,2.3,2.3,95,0.00,OVC,FEW,0.00,0.0,WeatherDisplay:10.37,2013-11-07 01:37:00,
2013-11-06 19:42:00,66.6,65.1,29.92,ESE,112,3.5,3.5,95,0.00,OVC,FEW,0.00,0.0,WeatherDisplay:10.37,2013-11-07 01:42:00,
2013-11-06 19:47:00,66.4,64.9,29.92,ESE,112,2.9,0.0,95,0.00,OVC,FEW,0.00,0.0,WeatherDisplay:10.37,2013-11-07 01:47:00,
2013-11-06 19:52:00,66.4,64.9,29.92,ESE,112,2.0,0.0,95,0.00,OVC,FEW,0.00,0.0,WeatherDisplay:10.37,2013-11-07 01:52:00,
2013-11-06 19:57:00,66.4,64.9,29.92,East,90,1.2,1.2,95,0.00,OVC,FEW,0.00,0.0,WeatherDisplay:10.37,2013-11-07 01:57:00,
2013-11-06 20:02:00,66.2,64.7,29.92,ESE,112,1.2,0.0,95,0.00,OVC,FEW,0.00,0.0,WeatherDisplay:10.37,2013-11-07 02:02:00,
2013-11-06 20:07:00,66.2,64.7,29.92,ESE,112,2.0,0.0,95,0.00,OVC,FEW,0.00,0.0,WeatherDisplay:10.37,2013-11-07 02:07:00,
2013-11-06 20:12:00,66.0,64.5,29.95,ESE,112,2.3,2.3,95,0.00,OVC,FEW,0.00,0.0,WeatherDisplay:10.37,2013-11-07 02:12:00,
2013-11-06 20:17:00,66.0,64.8,29.95,ESE,112,3.5,3.5,96,0.00,OVC,FEW,0.00,0.0,WeatherDisplay:10.37,2013-11-07 02:17:00,
2013-11-06 20:22:00,65.8,64.7,29.95,ESE,112,0.0,0.0,96,0.00,OVC,FEW,0.00,0.0,WeatherDisplay:10.37,2013-11-07 02:22:00,
2013-11-06 20:27:00,65.8,64.7,29.95,ESE,112,1.2,1.2,96,0.00,OVC,FEW,0.00,0.0,WeatherDisplay:10.37,2013-11-07 02:27:00,
2013-11-06 20:32:00,65.7,64.5,29.95,East,90,2.3,2.3,96,0.00,OVC,FEW,0.00,0.0,WeatherDisplay:10.37,2013-11-07 02:32:00,
2013-11-06 20:37:00,65.7,64.5,29.95,ESE,112,2.3,2.3,96,0.00,OVC,FEW,0.00,0.0,WeatherDisplay:10.37,2013-11-07 02:37:00,
2013-11-06 20:42:00,65.7,64.8,29.95,ENE,68,2.3,2.3,97,0.00,OVC,FEW,0.00,0.0,WeatherDisplay:10.37,2013-11-07 02:42:00,
2013-11-06 20:47:00,65.7,64.8,29.95,SSE,158,1.2,1.2,97,0.00,OVC,FEW,0.00,0.0,WeatherDisplay:10.37,2013-11-07 02:47:00,
2013-11-06 20:52:00,65.7,64.8,29.95,SE,135,3.5,3.5,97,0.00,OVC,FEW,0.00,0.0,WeatherDisplay:10.37,2013-11-07 02:52:00,
2013-11-06 20:57:00,65.7,64.8,29.92,SSE,158,3.5,3.5,97,0.00,OVC,FEW,0.00,0.0,WeatherDisplay:10.37,2013-11-07 02:57:00,
2013-11-06 21:02:00,65.7,64.8,29.92,East,90,3.5,3.5,97,0.00,OVC,FEW,0.00,0.0,WeatherDisplay:10.37,2013-11-07 03:02:00,
2013-11-06 21:07:00,65.7,64.8,29.92,East,90,4.0,4.0,97,0.00,OVC,FEW,0.00,0.0,WeatherDisplay:10.37,2013-11-07 03:07:00,
2013-11-06 21:12:00,65.7,64.8,29.95,East,90,2.3,2.3,97,0.00,BKN,FEW,0.00,0.0,WeatherDisplay:10.37,2013-11-07 03:12:00,
2013-11-06 21:17:00,65.7,64.8,29.95,SSE,158,3.5,3.5,97,0.00,BKN,FEW,0.00,0.0,WeatherDisplay:10.37,2013-11-07 03:17:00,
2013-11-06 21:22:00,66.0,65.1,29.95,ESE,112,2.3,2.3,97,0.00,BKN,FEW,0.00,0.0,WeatherDisplay:10.37,2013-11-07 03:22:00,
2013-11-06 21:27:00,66.0,64.8,29.92,ESE,112,2.6,2.6,96,0.00,BKN,FEW,0.00,0.0,WeatherDisplay:10.37,2013-11-07 03:27:00,
2013-11-06 21:32:00,65.8,65.0,29.92,SSE,158,2.3,2.3,97,0.00,BKN,FEW,0.00,0.0,WeatherDisplay:10.37,2013-11-07 03:32:00,
2013-11-06 21:37:00,65.8,65.0,29.92,East,90,2.3,2.3,97,0.00,BKN,FEW,0.00,0.0,WeatherDisplay:10.37,2013-11-07 03:37:00,
2013-11-06 21:42:00,65.8,65.0,29.92,East,90,2.3,2.3,97,0.00,BKN,FEW,0.00,0.0,WeatherDisplay:10.37,2013-11-07 03:42:00,
2013-11-06 21:47:00,65.8,65.0,29.92,ESE,112,2.3,0.0,97,0.00,BKN,FEW,0.00,0.0,WeatherDisplay:10.37,2013-11-07 03:47:00,
2013-11-06 21:52:00,65.8,65.0,29.92,East,90,1.2,0.0,97,0.00,BKN,FEW,0.00,0.0,WeatherDisplay:10.37,2013-11-07 03:52:00,
2013-11-06 21:57:00,65.8,65.0,29.92,ESE,112,1.2,0.0,97,0.00,BKN,FEW,0.00,0.0,WeatherDisplay:10.37,2013-11-07 03:57:00,
2013-11-06 22:02:00,65.8,65.0,29.92,ENE,68,1.2,0.0,97,0.00,OVC,FEW,0.00,0.0,WeatherDisplay:10.37,2013-11-07 04:02:00,
2013-11-06 22:07:00,65.8,65.0,29.92,ESE,112,1.4,1.4,97,0.00,OVC,FEW,0.00,0.0,WeatherDisplay:10.37,2013-11-07 04:07:00,
2013-11-06 22:12:00,65.7,64.8,29.92,ESE,112,0.0,0.9,97,0.00,OVC,FEW,0.00,0.0,WeatherDisplay:10.37,2013-11-07 04:12:00,
2013-11-06 22:17:00,65.7,64.8,29.92,East,90,1.2,0.0,97,0.00,OVC,FEW,0.00,0.0,WeatherDisplay:10.37,2013-11-07 04:17:00,
2013-11-06 22:22:00,65.7,64.8,29.92,East,90,0.0,0.0,97,0.00,OVC,FEW,0.00,0.0,WeatherDisplay:10.37,2013-11-07 04:22:00,
2013-11-06 22:27:00,65.7,64.8,29.95,East,90,1.2,0.0,97,0.00,OVC,FEW,0.00,0.0,WeatherDisplay:10.37,2013-11-07 04:27:00,
2013-11-06 22:32:00,65.7,64.8,29.95,East,90,0.0,0.0,97,0.00,OVC,FEW,0.00,0.0,WeatherDisplay:10.37,2013-11-07 04:32:00,
2013-11-06 22:37:00,65.5,64.6,29.95,East,90,0.0,0.0,97,0.00,OVC,FEW,0.00,0.0,WeatherDisplay:10.37,2013-11-07 04:37:00,
2013-11-06 22:42:00,65.5,64.6,29.92,East,90,1.2,0.0,97,0.00,OVC,FEW,0.00,0.0,WeatherDisplay:10.37,2013-11-07 04:42:00,
2013-11-06 22:47:00,65.5,64.6,29.92,ENE,68,1.2,0.0,97,0.00,OVC,FEW,0.00,0.0,WeatherDisplay:10.37,2013-11-07 04:47:00,
2013-11-06 22:52:00,65.5,64.6,29.92,ESE,112,2.3,2.3,97,0.00,OVC,FEW,0.00,0.0,WeatherDisplay:10.37,2013-11-07 04:52:00,
2013-11-06 22:57:00,65.5,64.6,29.92,ESE,112,2.3,2.3,97,0.00,OVC,FEW,0.00,0.0,WeatherDisplay:10.37,2013-11-07 04:57:00,
2013-11-06 23:01:00,65.5,64.6,29.92,SSE,158,2.3,2.3,97,0.00,OVC,FEW,0.00,0.0,WeatherDisplay:10.37,2013-11-07 05:01:00,
2013-11-06 23:02:00,65.7,64.8,29.92,ESE,112,1.2,0.0,97,0.00,OVC,FEW,0.00,0.0,WeatherDisplay:10.37,2013-11-07 05:02:00,
2013-11-06 23:06:00,65.7,64.8,29.92,ENE,68,0.0,0.0,97,0.00,OVC,FEW,0.00,0.0,WeatherDisplay:10.37,2013-11-07 05:06:00,
2013-11-06 23:11:00,65.7,64.8,29.92,ESE,112,0.0,0.0,97,0.00,OVC,FEW,0.00,0.0,WeatherDisplay:10.37,2013-11-07 05:11:00,
2013-11-06 23:16:00,65.7,64.8,29.92,East,90,0.0,0.0,97,0.00,OVC,FEW,0.00,0.0,WeatherDisplay:10.37,2013-11-07 05:16:00,
2013-11-06 23:21:00,65.7,64.8,29.92,ENE,68,0.0,0.0,97,0.00,OVC,FEW,0.00,0.0,WeatherDisplay:10.37,2013-11-07 05:21:00,
2013-11-06 23:26:00,65.7,64.8,29.89,ENE,68,0.0,0.0,97,0.00,OVC,FEW,0.00,0.0,WeatherDisplay:10.37,2013-11-07 05:26:00,
2013-11-06 23:31:00,65.7,64.8,29.89,East,90,0.0,0.0,97,0.00,OVC,FEW,0.00,0.0,WeatherDisplay:10.37,2013-11-07 05:31:00,
2013-11-06 23:36:00,65.5,64.6,29.89,East,90,0.0,0.0,97,0.00,OVC,FEW,0.00,0.0,WeatherDisplay:10.37,2013-11-07 05:36:00,
2013-11-06 23:41:00,65.5,64.6,29.92,SE,135,0.0,0.0,97,0.00,OVC,FEW,0.00,0.0,WeatherDisplay:10.37,2013-11-07 05:41:00,
2013-11-06 23:46:00,65.5,64.6,29.92,East,90,0.0,0.0,97,0.00,OVC,FEW,0.00,0.0,WeatherDisplay:10.37,2013-11-07 05:46:00,
2013-11-06 23:51:00,65.5,64.6,29.92,ENE,68,0.0,0.0,97,0.00,OVC,FEW,0.00,0.0,WeatherDisplay:10.37,2013-11-07 05:51:00,
2013-11-06 23:56:00,65.5,64.6,29.92,East,90,0.0,0.0,97,0.00,OVC,FEW,0.00,0.0,WeatherDisplay:10.37,2013-11-07 05:56:00,